Time;durP1;ratioP1;P1;durP2;ratioP2;P2;SDS_P1;SDS_P2;PMS_P1;PMS_P2;Temp;Humidity;BMP_temperature;BMP_pressure;BME280_temperature;BME280_humidity;BME280_pressure;Samples;Min_cycle;Max_cycle;Signal;HPM_P1;HPM_P2
2022/01/26 00:06:25;;;;;;;111.38;51.78;;;;;;;4.36;66.51;103138.44;3595381;40;20043;-63
2022/01/26 00:08:51;;;;;;;109.95;53.13;;;;;;;4.33;66.34;103134.88;3593985;40;20418;-63
2022/01/26 00:11:16;;;;;;;111.97;51.97;;;;;;;4.37;65.87;103144.63;3594200;39;20086;-64
2022/01/26 00:13:42;;;;;;;116.97;54.13;;;;;;;4.36;66.11;103140.22;3594146;40;20123;-63
2022/01/26 00:16:14;;;;;;;113.35;53.42;;;;;;;4.12;66.02;103096.72;3594992;40;20063;-63
2022/01/26 00:18:40;;;;;;;120.72;54.47;;;;;;;4.34;66.13;103140.19;3594452;40;20056;-63
2022/01/26 00:21:15;;;;;;;117.70;54.03;;;;;;;4.36;66.17;103140.22;3594967;40;20286;-63
2022/01/26 00:26:34;;;;;;;115.10;53.83;;;;;;;4.33;66.33;103132.22;3594810;40;20082;-63
2022/01/26 00:38:34;;;;;;;160.50;70.50;;;;;;;4.31;66.34;103128.66;3593715;40;20091;-63
2022/01/26 00:40:03;;;;;;;165.77;77.22;;;;;;;4.32;66.25;103126.00;3591823;40;20055;-63
2022/01/26 00:42:35;;;;;;;162.77;75.15;;;;;;;4.32;66.82;103130.44;3593706;40;20048;-63
2022/01/26 00:45:00;;;;;;;117.75;53.17;;;;;;;4.32;66.03;103130.44;3594113;39;20048;-63
2022/01/26 00:47:26;;;;;;;165.80;82.32;;;;;;;4.32;66.38;103126.00;3594548;39;20162;-64
2022/01/26 00:49:57;;;;;;;172.63;83.40;;;;;;;4.31;66.27;103124.22;3593713;40;20066;-63
2022/01/26 00:52:36;;;;;;;135.40;63.13;;;;;;;4.31;66.05;103123.31;3591104;40;20043;-63
2022/01/26 00:55:03;;;;;;;133.77;64.25;;;;;;;4.29;66.97;103118.00;3592732;40;20056;-63
2022/01/26 00:57:29;;;;;;;160.60;72.40;;;;;;;4.30;66.35;103126.88;3594494;40;20086;-63
2022/01/26 00:59:54;;;;;;;151.05;69.10;;;;;;;4.27;66.76;103116.22;3593385;40;20390;-63
2022/01/26 01:02:20;;;;;;;153.57;69.97;;;;;;;4.26;66.18;103120.66;3595718;39;20058;-63
2022/01/26 01:04:45;;;;;;;126.35;60.47;;;;;;;4.27;66.07;103116.22;3596464;39;20323;-63
2022/01/26 01:07:17;;;;;;;150.90;64.85;;;;;;;4.26;66.27;103115.34;3593716;40;20056;-63
2022/01/26 01:09:43;;;;;;;131.77;58.20;;;;;;;4.23;65.76;103120.66;3594634;40;20067;-63
2022/01/26 01:12:09;;;;;;;146.52;65.25;;;;;;;4.23;65.86;103119.78;3594944;40;20059;-63
2022/01/26 01:14:37;;;;;;;166.02;72.20;;;;;;;4.26;66.27;103118.00;3593826;40;20432;-63
2022/01/26 01:17:06;;;;;;;148.25;70.60;;;;;;;4.23;66.10;103115.34;3593389;40;20352;-63
2022/01/26 01:19:41;;;;;;;156.20;72.85;;;;;;;4.22;66.07;103108.25;3593919;39;20111;-63
2022/01/26 01:32:52;;;;;;;127.35;56.95;;;;;;;4.17;66.33;103102.91;3593655;40;20056;-63
2022/01/26 01:35:19;;;;;;;138.18;62.63;;;;;;;4.17;66.47;103088.72;3593431;40;20072;-63
2022/01/26 01:37:45;;;;;;;157.07;83.00;;;;;;;4.23;66.22;103095.81;3594440;39;20094;-63
2022/01/26 01:40:12;;;;;;;140.07;66.18;;;;;;;4.24;66.70;103098.47;3594524;40;20067;-63
2022/01/26 01:42:38;;;;;;;118.55;56.47;;;;;;;4.23;66.74;103094.06;3593988;40;20300;-63
2022/01/26 01:45:06;;;;;;;118.45;57.47;;;;;;;4.22;66.68;103084.28;3592374;40;20059;-63
2022/01/26 01:47:31;;;;;;;126.97;57.83;;;;;;;4.22;66.37;103086.03;3594031;40;20048;-63
2022/01/26 01:49:57;;;;;;;126.30;55.72;;;;;;;4.04;66.78;103055.88;3594255;40;20062;-63
2022/01/26 01:52:23;;;;;;;124.25;54.95;;;;;;;4.21;67.13;103092.25;3594399;40;20116;-63
2022/01/26 01:54:52;;;;;;;123.13;54.58;;;;;;;4.21;66.79;103090.47;3593353;39;20066;-63
2022/01/26 01:57:24;;;;;;;118.95;54.67;;;;;;;4.21;66.86;103101.13;3592641;40;20087;-63
2022/01/26 01:59:50;;;;;;;123.32;51.90;;;;;;;4.16;67.00;103087.84;3594472;40;20051;-63
2022/01/26 02:02:17;;;;;;;124.40;53.88;;;;;;;4.18;67.05;103086.03;3592245;40;20055;-63
2022/01/26 02:04:42;;;;;;;125.95;55.70;;;;;;;4.19;66.76;103082.50;3594310;40;20063;-64
2022/01/26 02:07:10;;;;;;;118.88;53.83;;;;;;;4.17;66.78;103091.38;3593673;40;20074;-63
2022/01/26 02:09:35;;;;;;;128.02;55.47;;;;;;;4.17;66.93;103091.38;3594345;40;20040;-63
2022/01/26 02:12:17;;;;;;;128.25;55.45;;;;;;;4.15;67.40;103079.81;3594358;39;20062;-64
2022/01/26 02:14:49;;;;;;;123.38;54.33;;;;;;;4.14;67.62;103078.06;3593696;40;20090;-63
2022/01/26 02:20:00;;;;;;;124.00;54.92;;;;;;;3.94;66.89;103028.38;3593452;40;20044;-63
2022/01/26 02:53:26;;;;;;;112.50;49.58;;;;;;;4.05;66.19;103039.00;3594167;40;20052;-64
2022/01/26 02:55:52;;;;;;;107.22;46.50;;;;;;;3.85;65.54;102996.44;3592023;40;20067;-63
2022/01/26 03:04:17;;;;;;;115.07;50.05;;;;;;;4.02;66.29;103015.06;3578296;40;20314;-63
2022/01/26 03:07:22;;;;;;;114.90;50.20;;;;;;;4.00;66.36;103016.84;3593571;40;20193;-64
2022/01/26 03:09:44;;;;;;;118.30;51.28;;;;;;;4.02;66.56;103022.16;3591262;40;20118;-63
2022/01/26 03:12:12;;;;;;;121.15;50.70;;;;;;;4.01;66.92;103020.41;3593529;40;20051;-63
2022/01/26 03:14:48;;;;;;;113.28;49.80;;;;;;;3.95;66.17;103013.28;3593872;40;20054;-63
2022/01/26 03:17:35;;;;;;;111.00;50.30;;;;;;;3.80;66.55;102984.88;3624992;22;20043;-60
2022/01/26 03:20:06;;;;;;;113.18;49.08;;;;;;;3.97;66.77;103003.53;3575242;40;20057;-62
2022/01/26 03:35:56;;;;;;;113.18;47.78;;;;;;;3.87;67.22;103005.31;3576645;40;20071;-59
2022/01/26 03:38:27;;;;;;;115.15;48.97;;;;;;;3.89;66.97;103011.50;3577813;40;20075;-61
2022/01/26 03:41:12;;;;;;;112.05;50.22;;;;;;;3.75;66.62;102984.00;3577979;40;20084;-61
2022/01/26 03:43:38;;;;;;;121.68;48.63;;;;;;;3.98;66.91;103015.94;3568990;40;20040;-61
2022/01/26 03:46:03;;;;;;;115.50;49.55;;;;;;;3.94;67.04;103009.75;3577286;40;20132;-61
2022/01/26 03:48:29;;;;;;;118.30;49.97;;;;;;;3.93;67.20;103018.63;3578201;40;20057;-61
2022/01/26 03:50:55;;;;;;;116.90;50.53;;;;;;;3.85;67.45;102998.22;3575072;40;20048;-61
2022/01/26 03:53:20;;;;;;;113.60;50.03;;;;;;;3.85;67.23;102992.88;3578072;40;20045;-60
2022/01/26 03:55:46;;;;;;;120.78;50.42;;;;;;;3.92;67.07;103002.63;3578944;40;20062;-60
2022/01/26 03:58:12;;;;;;;118.35;52.22;;;;;;;3.91;66.77;103001.75;3577659;40;20072;-61
2022/01/26 04:00:37;;;;;;;123.07;51.72;;;;;;;3.91;67.49;102999.09;3575711;40;20051;-60
2022/01/26 04:03:04;;;;;;;123.20;51.50;;;;;;;3.85;68.02;103007.06;3574809;40;20060;-61
2022/01/26 04:05:29;;;;;;;118.75;51.60;;;;;;;3.92;67.02;103013.28;3574691;40;20056;-61
2022/01/26 04:08:02;;;;;;;113.57;50.20;;;;;;;3.89;67.67;103014.16;3576396;40;20059;-62
2022/01/26 04:10:44;;;;;;;122.90;51.60;;;;;;;3.87;67.27;103021.28;3576083;40;20100;-60
2022/01/26 04:13:10;;;;;;;114.35;50.20;;;;;;;3.84;67.16;103007.97;3578236;40;20064;-62
2022/01/26 04:15:37;;;;;;;122.35;50.58;;;;;;;3.91;67.69;103022.16;3575086;40;20056;-61
2022/01/26 04:18:07;;;;;;;118.75;50.72;;;;;;;3.89;67.35;103019.47;3579062;40;20060;-61
2022/01/26 04:20:38;;;;;;;123.80;49.92;;;;;;;3.87;67.61;103007.97;3575573;40;20303;-61
2022/01/26 04:23:29;;;;;;;122.22;51.30;;;;;;;3.73;67.56;102980.44;3573838;40;20372;-63
2022/01/26 04:25:54;;;;;;;117.32;49.53;;;;;;;3.87;68.06;103013.28;3578180;40;20033;-62
2022/01/26 04:28:32;;;;;;;120.13;50.28;;;;;;;3.86;67.75;103018.59;3577123;40;20049;-61
2022/01/26 04:30:58;;;;;;;115.70;49.50;;;;;;;3.81;67.99;102997.31;3579139;40;20048;-61
2022/01/26 04:33:23;;;;;;;113.30;48.78;;;;;;;3.72;67.51;102998.19;3578827;40;20044;-60
2022/01/26 04:35:49;;;;;;;118.60;50.60;;;;;;;3.63;67.52;102990.19;3578512;40;20061;-63
2022/01/26 04:38:28;;;;;;;115.45;49.85;;;;;;;3.74;68.04;102995.50;3576635;40;20283;-62
2022/01/26 04:41:09;;;;;;;120.32;50.70;;;;;;;3.79;68.30;103012.38;3580191;40;20057;-62
2022/01/26 04:43:39;;;;;;;110.35;48.13;;;;;;;3.84;68.04;103031.91;3577162;40;20040;-62
2022/01/26 04:46:05;;;;;;;113.85;49.95;;;;;;;3.87;68.02;103036.31;3579420;40;20396;-61
2022/01/26 04:48:31;;;;;;;117.90;51.30;;;;;;;3.80;68.08;103030.09;3576892;40;20055;-61
2022/01/26 04:50:57;;;;;;;119.18;49.10;;;;;;;3.81;67.98;103039.00;3583396;40;20057;-62
2022/01/26 04:53:22;;;;;;;111.20;48.38;;;;;;;3.82;68.46;103043.44;3578102;40;20063;-63
2022/01/26 04:55:48;;;;;;;118.70;50.53;;;;;;;3.81;68.24;103037.22;3576691;40;20065;-63
2022/01/26 04:58:14;;;;;;;120.10;49.45;;;;;;;3.85;67.81;103039.00;3578502;40;20053;-63
2022/01/26 05:00:40;;;;;;;118.10;50.78;;;;;;;3.70;68.04;103012.34;3577166;40;20068;-61
2022/01/26 05:03:05;;;;;;;118.35;50.15;;;;;;;3.81;67.86;103042.53;3576370;40;20071;-61
2022/01/26 05:05:31;;;;;;;115.22;49.03;;;;;;;3.39;68.14;102976.84;3576461;40;20387;-61
2022/01/26 05:07:57;;;;;;;122.10;51.17;;;;;;;3.79;68.56;103028.34;3576452;40;20056;-61
2022/01/26 05:10:23;;;;;;;122.65;51.50;;;;;;;3.78;67.76;103021.25;3581940;40;20048;-61
2022/01/26 05:12:49;;;;;;;115.10;49.45;;;;;;;3.84;68.61;103031.03;3577195;40;20064;-62
2022/01/26 05:15:15;;;;;;;113.63;49.83;;;;;;;3.84;67.79;103031.03;3578241;40;20057;-61
2022/01/26 05:17:41;;;;;;;113.80;50.15;;;;;;;3.82;67.96;103039.00;3578988;40;20092;-61
2022/01/26 05:20:09;;;;;;;115.95;50.95;;;;;;;3.86;68.17;103035.44;3579084;40;20655;-62
2022/01/26 05:22:38;;;;;;;121.13;51.42;;;;;;;3.87;67.93;103026.59;3579870;40;20052;-62
2022/01/26 05:25:04;;;;;;;118.85;49.28;;;;;;;3.85;68.34;103007.06;3582615;40;20312;-62
2022/01/26 05:27:30;;;;;;;119.13;50.70;;;;;;;3.82;67.68;102995.53;3576817;40;20059;-62
2022/01/26 05:29:55;;;;;;;115.30;48.72;;;;;;;3.73;68.46;102991.09;3578692;40;20334;-62
2022/01/26 05:32:21;;;;;;;116.40;49.85;;;;;;;3.71;68.48;102967.16;3577256;40;20056;-61
2022/01/26 05:34:47;;;;;;;113.60;50.05;;;;;;;3.79;68.43;102987.56;3577261;40;20055;-61
2022/01/26 05:37:12;;;;;;;116.57;48.88;;;;;;;3.69;68.44;102976.03;3580086;40;20067;-62
2022/01/26 05:39:38;;;;;;;118.32;51.50;;;;;;;3.76;68.38;102983.13;3577416;40;20060;-61
2022/01/26 05:42:06;;;;;;;117.20;50.13;;;;;;;3.71;68.16;102988.44;3571335;40;20044;-62
2022/01/26 05:44:32;;;;;;;118.32;49.95;;;;;;;3.79;68.67;103009.72;3582288;40;20040;-61
2022/01/26 05:46:58;;;;;;;116.03;50.58;;;;;;;3.76;68.59;102996.41;3583780;40;20056;-62
2022/01/26 05:49:25;;;;;;;118.22;50.38;;;;;;;3.78;68.78;102999.97;3582383;40;20391;-63
2022/01/26 05:51:51;;;;;;;114.05;49.22;;;;;;;3.76;68.39;102979.56;3580139;40;20052;-62
2022/01/26 05:54:17;;;;;;;117.93;50.60;;;;;;;3.76;69.16;102988.44;3581159;40;20061;-63
2022/01/26 05:56:47;;;;;;;123.57;51.38;;;;;;;3.79;69.08;102995.53;3578001;40;20161;-62
2022/01/26 05:59:17;;;;;;;118.18;50.00;;;;;;;3.57;68.54;102947.63;3578845;40;20044;-63
2022/01/26 06:01:43;;;;;;;115.53;51.10;;;;;;;3.82;69.41;102992.88;3575971;40;20063;-62
2022/01/26 06:04:08;;;;;;;115.25;49.55;;;;;;;3.73;68.76;102986.66;3580196;40;20269;-63
2022/01/26 06:06:34;;;;;;;117.28;50.35;;;;;;;3.80;69.08;102982.22;3573519;40;20060;-62
2022/01/26 06:08:59;;;;;;;115.38;50.15;;;;;;;3.81;69.37;102985.78;3579326;40;20431;-62
2022/01/26 06:11:25;;;;;;;119.93;51.55;;;;;;;3.76;68.89;102966.28;3580796;40;20050;-62
2022/01/26 06:13:51;;;;;;;118.35;51.75;;;;;;;3.80;69.34;102981.34;3577444;40;20693;-62
2022/01/26 06:16:19;;;;;;;126.10;53.05;;;;;;;3.67;69.79;102959.16;3580421;40;20056;-62
2022/01/26 06:18:44;;;;;;;119.93;51.92;;;;;;;3.79;69.33;102987.56;3580116;40;20062;-62
2022/01/26 06:21:10;;;;;;;120.10;50.67;;;;;;;3.76;69.22;102985.78;3581312;40;20052;-62
2022/01/26 06:23:36;;;;;;;119.53;51.33;;;;;;;3.77;69.53;102991.97;3580119;40;20041;-61
2022/01/26 06:26:01;;;;;;;120.60;50.50;;;;;;;3.83;69.96;103005.28;3584215;40;20080;-64
2022/01/26 06:28:28;;;;;;;123.40;52.05;;;;;;;3.82;70.17;102992.88;3580837;40;20077;-62
2022/01/26 06:31:15;;;;;;;121.25;53.25;;;;;;;3.79;70.19;102993.75;3579049;40;20102;-62
2022/01/26 06:33:43;;;;;;;121.97;51.45;;;;;;;3.83;70.36;102987.53;3569783;40;20066;-62
2022/01/26 06:36:12;;;;;;;114.75;51.20;;;;;;;3.83;69.89;102981.34;3575377;40;20045;-62
2022/01/26 06:38:46;;;;;;;121.55;52.63;;;;;;;3.77;70.51;102971.56;3576289;40;20145;-62
2022/01/26 06:41:13;;;;;;;118.80;50.13;;;;;;;3.77;70.41;102971.56;3578319;40;20056;-62
2022/01/26 06:43:48;;;;;;;117.18;52.05;;;;;;;3.57;70.07;102944.09;3577072;40;20049;-62
2022/01/26 06:46:22;;;;;;;122.20;53.25;;;;;;;3.78;70.86;102986.69;3577767;40;20049;-63
2022/01/26 06:49:28;;;;;;;119.93;52.75;;;;;;;3.82;70.77;102991.09;3578737;40;20122;-62
2022/01/26 06:51:49;;;;;;;115.18;50.40;;;;;;;3.72;71.18;102984.00;3577667;40;20466;-62
2022/01/26 06:54:14;;;;;;;120.40;51.00;;;;;;;3.74;70.89;102987.53;3577862;40;20044;-62
2022/01/26 06:56:40;;;;;;;122.75;51.88;;;;;;;3.76;70.79;102999.06;3575607;40;20104;-63
2022/01/26 06:59:06;;;;;;;124.78;53.70;;;;;;;3.80;71.44;103000.84;3565683;40;20059;-64
2022/01/26 07:01:31;;;;;;;125.80;53.95;;;;;;;3.62;71.07;102960.94;3578713;40;20063;-63
2022/01/26 07:03:57;;;;;;;126.80;53.95;;;;;;;3.75;71.31;102984.00;3576100;40;20059;-62
2022/01/26 07:06:23;;;;;;;126.18;52.17;;;;;;;3.62;71.44;102958.28;3578984;40;20371;-64
2022/01/26 07:08:48;;;;;;;123.20;54.60;;;;;;;3.60;71.37;102952.06;3577006;40;20419;-63
2022/01/26 07:11:14;;;;;;;130.23;54.22;;;;;;;3.85;71.36;102995.53;3579214;40;20328;-63
2022/01/26 07:13:41;;;;;;;131.05;54.17;;;;;;;3.86;71.17;102987.56;3580656;40;20051;-63
2022/01/26 07:21:35;;;;;;;138.18;55.20;;;;;;;3.68;71.35;102963.63;3575387;40;20060;-62
2022/01/26 07:24:01;;;;;;;127.97;54.17;;;;;;;3.88;71.72;103001.75;3579089;40;20053;-62
2022/01/26 07:26:29;;;;;;;136.70;55.97;;;;;;;3.78;72.08;102999.97;3575394;40;20071;-62
2022/01/26 07:29:05;;;;;;;130.68;55.45;;;;;;;3.88;71.90;103035.47;3575407;40;20064;-63
2022/01/26 07:31:33;;;;;;;130.88;55.63;;;;;;;3.82;72.54;103024.81;3576423;40;20051;-62
2022/01/26 07:33:58;;;;;;;137.52;55.40;;;;;;;3.89;71.56;103006.19;3579806;40;20045;-63
2022/01/26 07:36:25;;;;;;;133.35;54.78;;;;;;;3.86;72.36;103013.28;3577486;40;20044;-63
2022/01/26 07:38:54;;;;;;;137.25;56.65;;;;;;;3.89;72.51;103019.47;3580972;40;20106;-62
2022/01/26 07:41:21;;;;;;;137.23;55.90;;;;;;;3.92;72.95;103019.47;3583040;40;20302;-62
2022/01/26 07:43:47;;;;;;;128.10;53.35;;;;;;;3.88;72.32;103007.06;3579049;40;20053;-62
2022/01/26 07:46:13;;;;;;;136.60;55.17;;;;;;;3.80;73.12;103002.63;3580330;40;20084;-62
2022/01/26 07:48:40;;;;;;;139.32;57.25;;;;;;;3.67;73.50;102975.13;3581337;40;20052;-62
2022/01/26 07:51:06;;;;;;;137.13;55.58;;;;;;;3.89;73.55;103022.13;3578867;40;20107;-62
2022/01/26 07:53:32;;;;;;;138.55;55.30;;;;;;;3.23;72.95;102899.72;3575896;40;20335;-62
2022/01/26 07:55:59;;;;;;;144.65;56.78;;;;;;;3.87;74.23;103007.97;3575735;40;20052;-62
2022/01/26 07:58:25;;;;;;;139.25;56.53;;;;;;;3.86;73.90;103000.84;3581278;40;20363;-62
2022/01/26 08:00:51;;;;;;;142.88;56.78;;;;;;;3.85;74.15;103016.84;3575152;40;20110;-63
2022/01/26 08:03:17;;;;;;;145.38;56.55;;;;;;;3.77;74.18;103022.13;3577850;40;20040;-62
2022/01/26 08:05:44;;;;;;;133.68;53.50;;;;;;;3.88;73.70;103039.00;3581391;40;20060;-62
2022/01/26 08:08:10;;;;;;;146.77;57.10;;;;;;;3.87;74.55;103047.88;3581593;40;20120;-62
2022/01/26 08:10:36;;;;;;;138.55;55.25;;;;;;;3.90;74.54;103050.53;3578382;40;20053;-61
2022/01/26 08:13:03;;;;;;;134.18;53.38;;;;;;;3.82;74.36;103024.81;3577174;40;20084;-62
2022/01/26 08:15:29;;;;;;;139.98;54.38;;;;;;;3.81;74.91;103021.25;3579251;40;20068;-63
2022/01/26 08:17:59;;;;;;;140.32;53.03;;;;;;;3.91;74.95;103041.66;3577123;40;20314;-63
2022/01/26 08:20:25;;;;;;;138.25;53.72;;;;;;;3.83;74.97;103030.09;3573062;40;20041;-63
2022/01/26 08:22:53;;;;;;;139.50;53.67;;;;;;;3.87;75.02;103042.56;3577703;40;20068;-62
2022/01/26 08:25:21;;;;;;;141.48;54.42;;;;;;;3.86;75.12;103040.75;3577654;40;20041;-63
2022/01/26 08:27:54;;;;;;;138.27;53.88;;;;;;;3.91;75.14;103035.47;3577530;40;20052;-64
2022/01/26 08:30:20;;;;;;;136.50;53.55;;;;;;;3.89;75.53;103035.44;3581355;40;20387;-62
2022/01/26 08:32:46;;;;;;;139.07;51.42;;;;;;;3.94;75.43;103033.69;3577676;40;20045;-65
2022/01/26 08:35:12;;;;;;;141.50;53.10;;;;;;;3.69;76.08;102994.63;3580467;40;20045;-63
2022/01/26 08:37:38;;;;;;;141.60;52.88;;;;;;;3.93;75.30;103034.59;3576443;40;20452;-62
2022/01/26 08:40:05;;;;;;;139.00;53.20;;;;;;;3.95;75.38;103030.13;3581069;40;20053;-62
2022/01/26 08:42:32;;;;;;;134.80;52.30;;;;;;;3.77;76.17;103011.47;3579230;40;20048;-63
2022/01/26 08:44:57;;;;;;;135.02;53.33;;;;;;;3.93;76.40;103042.56;3576501;40;20122;-62
2022/01/26 08:47:23;;;;;;;130.30;51.08;;;;;;;3.38;76.21;102949.38;3578553;39;20056;-63
2022/01/26 08:49:49;;;;;;;131.07;51.15;;;;;;;3.84;76.33;103029.25;3576237;40;20056;-61
2022/01/26 08:52:14;;;;;;;140.05;53.47;;;;;;;3.73;76.05;103012.38;3580408;40;20121;-62
2022/01/26 08:54:40;;;;;;;132.48;50.65;;;;;;;3.85;76.20;103027.47;3583056;40;20045;-61
2022/01/26 08:57:06;;;;;;;133.10;50.00;;;;;;;3.94;76.08;103041.66;3580987;40;20368;-62
2022/01/26 08:59:31;;;;;;;129.93;50.60;;;;;;;4.00;75.95;103059.44;3579567;40;20056;-60
2022/01/26 09:01:57;;;;;;;129.80;51.72;;;;;;;3.94;75.77;103049.66;3577363;40;20048;-60
2022/01/26 09:04:23;;;;;;;120.75;47.72;;;;;;;3.91;76.22;103025.69;3579261;40;20055;-60
2022/01/26 09:07:00;;;;;;;128.48;50.45;;;;;;;4.04;75.79;103050.56;3579062;40;20399;-60
2022/01/26 09:09:30;;;;;;;123.28;49.15;;;;;;;4.03;75.92;103042.56;3580213;40;20055;-60
2022/01/26 09:11:58;;;;;;;127.15;50.53;;;;;;;3.80;75.40;102992.88;3581223;40;20057;-60
2022/01/26 09:14:27;;;;;;;119.55;48.47;;;;;;;4.03;75.50;103037.22;3577167;40;20041;-61
2022/01/26 09:16:54;;;;;;;122.85;49.40;;;;;;;4.05;75.52;103051.44;3568923;40;20059;-60
2022/01/26 09:19:30;;;;;;;120.15;48.20;;;;;;;4.07;75.04;103050.56;3631795;22;20217;-66
2022/01/26 09:22:03;;;;;;;120.13;48.22;;;;;;;4.08;75.72;103054.09;3603160;39;20108;-66
2022/01/26 09:24:31;;;;;;;120.20;47.42;;;;;;;4.10;76.07;103055.00;3602983;39;20169;-65
2022/01/26 09:26:58;;;;;;;116.32;48.20;;;;;;;3.90;75.95;103020.38;3604326;39;20058;-66
2022/01/26 09:29:23;;;;;;;115.22;47.38;;;;;;;4.01;76.18;103039.91;3601999;39;20463;-66
2022/01/26 09:31:50;;;;;;;120.25;46.70;;;;;;;4.16;76.16;103060.34;3603332;39;21444;-65
2022/01/26 09:34:18;;;;;;;120.95;46.33;;;;;;;4.19;75.32;103066.53;3599897;39;20052;-66
2022/01/26 09:36:45;;;;;;;112.53;46.70;;;;;;;4.18;75.77;103070.06;3601926;39;20047;-65
2022/01/26 09:39:15;;;;;;;107.53;46.67;;;;;;;4.18;76.08;103064.75;3602994;39;20157;-66
2022/01/26 09:41:40;;;;;;;110.82;46.35;;;;;;;3.88;75.76;103007.06;3603164;39;20105;-65
2022/01/26 09:44:07;;;;;;;119.20;48.00;;;;;;;4.22;75.84;103044.38;3602315;39;20074;-65
2022/01/26 09:46:33;;;;;;;113.68;47.03;;;;;;;4.28;75.45;103051.44;3604793;39;20063;-65
2022/01/26 09:49:01;;;;;;;107.82;46.67;;;;;;;4.29;75.27;103040.81;3600734;39;20100;-67
2022/01/26 09:51:27;;;;;;;117.28;48.67;;;;;;;4.34;75.66;103040.78;3604903;39;20506;-66
2022/01/26 09:54:09;;;;;;;111.40;46.63;;;;;;;4.34;75.80;103032.81;3601656;39;20074;-66
2022/01/26 09:56:35;;;;;;;110.57;47.08;;;;;;;4.37;75.11;103027.47;3601372;39;20088;-66
2022/01/26 09:59:00;;;;;;;105.93;46.20;;;;;;;4.45;74.73;103024.84;3602611;39;20394;-66
2022/01/26 10:01:26;;;;;;;103.13;47.00;;;;;;;4.41;74.18;103030.16;3601418;39;20059;-66
2022/01/26 10:03:52;;;;;;;97.55;43.72;;;;;;;4.38;74.06;103030.16;3604439;39;20051;-66
2022/01/26 10:06:28;;;;;;;91.95;43.20;;;;;;;4.39;73.97;103031.03;3603335;39;20062;-66
2022/01/26 10:09:03;;;;;;;99.00;44.65;;;;;;;4.42;74.41;103021.28;3600450;39;20099;-66
2022/01/26 10:17:26;;;;;;;89.22;42.15;;;;;;;4.50;74.04;103023.03;3602830;39;20706;-66
2022/01/26 10:19:59;;;;;;;96.15;46.47;;;;;;;4.55;73.83;103026.59;3603943;39;20063;-66
2022/01/26 10:22:30;;;;;;;100.78;46.85;;;;;;;4.56;74.09;103028.34;3604544;39;20051;-65
2022/01/26 10:25:20;;;;;;;98.43;45.20;;;;;;;4.46;73.80;103006.16;3603691;39;20048;-65
2022/01/26 10:27:50;;;;;;;92.47;43.13;;;;;;;4.60;73.88;103020.38;3603754;39;20356;-66
2022/01/26 10:30:20;;;;;;;90.93;43.28;;;;;;;4.60;73.71;103014.16;3593837;39;20050;-65
2022/01/26 10:32:47;;;;;;;88.55;43.63;;;;;;;4.56;73.73;103009.72;3601313;39;20052;-66
2022/01/26 10:35:15;;;;;;;89.97;42.60;;;;;;;4.60;73.35;103014.16;3601008;39;20104;-65
2022/01/26 10:38:01;;;;;;;94.45;44.85;;;;;;;4.61;74.15;103022.13;3601653;39;20118;-66
2022/01/26 10:40:28;;;;;;;105.70;49.92;;;;;;;4.58;73.53;103026.59;3601488;39;20054;-65
2022/01/26 10:43:12;;;;;;;92.57;45.80;;;;;;;4.58;74.32;103042.56;3604095;39;20051;-66
2022/01/26 10:45:58;;;;;;;99.72;47.92;;;;;;;4.51;74.08;103059.44;3602558;39;20047;-65
2022/01/26 10:48:39;;;;;;;101.18;50.35;;;;;;;4.56;74.19;103070.97;3601922;39;20043;-66
2022/01/26 10:53:55;;;;;;;93.07;46.42;;;;;;;4.59;74.01;103076.28;3599784;39;20318;-66
2022/01/26 10:56:21;;;;;;;92.07;44.03;;;;;;;4.57;74.45;103070.09;3600831;39;20382;-66
2022/01/26 10:58:46;;;;;;;97.63;46.58;;;;;;;4.58;74.84;103058.53;3601202;39;20052;-66
2022/01/26 11:01:12;;;;;;;98.88;45.95;;;;;;;4.61;74.36;103058.53;3600919;39;20346;-66
2022/01/26 11:03:38;;;;;;;93.88;44.65;;;;;;;4.60;74.64;103056.78;3601554;39;20054;-66
2022/01/26 11:06:06;;;;;;;92.18;43.28;;;;;;;4.59;74.64;103054.97;3600915;39;20051;-66
2022/01/26 11:08:40;;;;;;;96.32;45.72;;;;;;;4.62;74.90;103049.66;3600878;39;20043;-66
2022/01/26 11:11:06;;;;;;;;;;;;;;;4.52;74.27;103035.47;3603145;39;20067;-66
2022/01/26 11:13:39;;;;;;;97.65;43.75;;;;;;;3.99;74.99;102958.28;3601094;39;19931;-66
2022/01/26 11:16:14;;;;;;;91.82;45.03;;;;;;;4.63;75.28;103051.41;3580932;40;20157;-66
2022/01/26 11:18:54;;;;;;;89.60;43.08;;;;;;;4.34;74.98;102998.19;3600365;39;20063;-66
2022/01/26 11:21:37;;;;;;;90.32;43.85;;;;;;;4.59;74.58;103039.00;3601630;39;20051;-66
2022/01/26 11:24:15;;;;;;;90.65;43.03;;;;;;;4.61;74.82;103042.56;3601526;39;20044;-66
2022/01/26 11:26:42;;;;;;;96.03;43.83;;;;;;;4.62;74.31;103034.56;3601406;39;20052;-66
2022/01/26 11:29:37;;;;;;;94.97;42.88;;;;;;;4.64;74.39;103031.91;3602979;39;20050;-66
2022/01/26 11:32:24;;;;;;;90.47;43.92;;;;;;;4.49;74.53;103005.28;3599539;39;20047;-67
2022/01/26 11:34:54;;;;;;;88.32;43.75;;;;;;;4.67;74.44;103036.34;3593593;39;20419;-66
2022/01/26 11:37:38;;;;;;;92.55;42.25;;;;;;;4.70;74.75;103033.69;3603106;39;20055;-66
2022/01/26 11:45:34;;;;;;;94.07;44.30;;;;;;;4.71;74.36;103011.47;3600032;39;20043;-66
2022/01/26 11:48:03;;;;;;;92.93;42.53;;;;;;;4.74;74.30;103003.47;3600564;39;20051;-66
2022/01/26 11:50:31;;;;;;;84.47;43.10;;;;;;;4.70;74.43;103002.59;3604376;39;20066;-66
2022/01/26 11:53:09;;;;;;;84.00;41.50;;;;;;;4.73;74.48;102999.03;3604496;39;20059;-66
2022/01/26 11:55:49;;;;;;;86.55;42.38;;;;;;;4.79;74.17;103005.25;3603287;39;20052;-66
2022/01/26 11:58:27;;;;;;;89.85;42.40;;;;;;;4.79;73.81;102999.91;3600303;39;20051;-66
2022/01/26 12:01:13;;;;;;;87.95;43.58;;;;;;;4.80;74.24;103006.13;3602632;39;20495;-66
2022/01/26 12:03:55;;;;;;;88.85;42.35;;;;;;;4.79;73.68;102999.00;3600061;39;20044;-66
2022/01/26 12:06:34;;;;;;;86.90;43.38;;;;;;;4.85;74.15;102991.91;3601247;39;20057;-66
2022/01/26 12:09:03;;;;;;;86.85;43.72;;;;;;;4.86;73.48;102995.44;3600282;39;20375;-66
2022/01/26 12:11:29;;;;;;;89.72;43.63;;;;;;;4.91;73.16;102998.06;3602845;39;20055;-66
2022/01/26 12:14:05;;;;;;;86.43;43.58;;;;;;;4.91;73.61;102984.75;3601898;39;20046;-66
2022/01/26 12:16:43;;;;;;;87.63;43.92;;;;;;;4.91;73.27;102984.75;3598920;39;20342;-64
2022/01/26 12:43:47;;;;;;;81.40;40.90;;;;;;;5.04;72.51;102986.47;3603414;39;20053;-66
2022/01/26 12:46:27;;;;;;;78.40;40.55;;;;;;;4.94;72.52;102976.75;3603257;39;20666;-65
2022/01/26 12:49:15;;;;;;;81.15;41.63;;;;;;;4.91;72.44;102963.44;3604751;39;20058;-64
2022/01/26 12:51:45;;;;;;;99.32;48.42;;;;;;;5.11;72.47;102985.56;3600676;39;20058;-64
2022/01/26 12:54:13;;;;;;;77.78;38.22;;;;;;;5.10;72.28;102983.78;3603787;39;20055;-65
2022/01/26 12:56:38;;;;;;;146.40;61.63;;;;;;;4.98;72.17;102954.50;3602512;39;20419;-65
2022/01/26 12:59:43;;;;;;;109.00;51.60;;;;;;;4.87;72.27;102942.13;3600374;39;20055;-64
2022/01/26 13:02:10;;;;;;;75.88;39.42;;;;;;;5.19;71.83;102993.53;3634854;22;22099;-64
2022/01/26 13:04:36;;;;;;;82.25;40.10;;;;;;;5.19;72.49;102994.41;3591188;40;20430;-65
2022/01/26 13:07:04;;;;;;;77.35;40.22;;;;;;;5.23;71.63;102996.19;3588438;40;20294;-67
2022/01/26 13:09:41;;;;;;;70.05;38.15;;;;;;;5.22;72.09;102994.41;3591839;40;20412;-64
2022/01/26 13:12:08;;;;;;;81.95;41.83;;;;;;;5.26;71.84;102980.16;3588123;39;20052;-65
2022/01/26 13:17:34;;;;;;;75.85;40.50;;;;;;;5.29;72.01;102964.13;3625604;22;20062;-64
2022/01/26 13:39:14;;;;;;;136.60;83.43;;;;;;;5.34;71.46;102946.34;3586162;40;20434;-64
2022/01/26 13:42:15;;;;;;;135.57;83.93;;;;;;;5.24;71.86;102933.97;3586122;40;20060;-64
2022/01/26 13:50:04;;;;;;;102.32;57.03;;;;;;;5.42;71.44;102959.63;3590621;40;20048;-64
2022/01/26 14:00:09;;;;;;;90.40;48.42;;;;;;;5.36;71.50;102938.34;3590060;40;20060;-65
2022/01/26 14:02:37;;;;;;;87.85;46.38;;;;;;;5.37;71.48;102931.22;3592016;40;20125;-64